sensor_id;sensor_type;location;lat;lon;timestamp;P1;durP1;ratioP1;P2;durP2;ratioP2
10904;SDS011;5505;51.450;9.254;2024-03-23T00:55:28;15.53;;;4.53;;
10904;SDS011;5505;51.450;9.254;2024-03-23T00:58:15;13.53;;;4.40;;
10904;SDS011;5505;51.450;9.254;2024-03-23T01:01:01;10.90;;;4.10;;
10904;SDS011;5505;51.450;9.254;2024-03-23T01:03:48;13.27;;;4.30;;
10904;SDS011;5505;51.450;9.254;2024-03-23T01:06:34;11.73;;;4.40;;
10904;SDS011;5505;51.450;9.254;2024-03-23T01:09:21;12.37;;;4.20;;
10904;SDS011;5505;51.450;9.254;2024-03-23T01:12:09;12.10;;;4.00;;
10904;SDS011;5505;51.450;9.254;2024-03-23T01:14:56;8.67;;;4.07;;
10904;SDS011;5505;51.450;9.254;2024-03-23T01:17:41;12.93;;;4.20;;
10904;SDS011;5505;51.450;9.254;2024-03-23T01:20:28;10.80;;;4.30;;
10904;SDS011;5505;51.450;9.254;2024-03-23T01:23:14;12.23;;;3.97;;
10904;SDS011;5505;51.450;9.254;2024-03-23T01:26:01;10.33;;;4.10;;
10904;SDS011;5505;51.450;9.254;2024-03-23T01:28:48;13.40;;;3.87;;
10904;SDS011;5505;51.450;9.254;2024-03-23T01:31:35;10.90;;;3.90;;
10904;SDS011;5505;51.450;9.254;2024-03-23T01:34:21;12.20;;;4.07;;
10904;SDS011;5505;51.450;9.254;2024-03-23T01:37:09;13.77;;;5.03;;
10904;SDS011;5505;51.450;9.254;2024-03-23T01:39:55;12.33;;;3.77;;
10904;SDS011;5505;51.450;9.254;2024-03-23T01:42:42;6.90;;;3.27;;
10904;SDS011;5505;51.450;9.254;2024-03-23T01:45:42;13.03;;;3.67;;
10904;SDS011;5505;51.450;9.254;2024-03-23T01:48:28;12.07;;;3.40;;
10904;SDS011;5505;51.450;9.254;2024-03-23T01:51:14;10.63;;;3.57;;
10904;SDS011;5505;51.450;9.254;2024-03-23T01:54:01;11.33;;;3.93;;
10904;SDS011;5505;51.450;9.254;2024-03-23T01:56:49;10.27;;;4.60;;
10904;SDS011;5505;51.450;9.254;2024-03-23T01:59:35;8.77;;;3.90;;
10904;SDS011;5505;51.450;9.254;2024-03-23T02:02:23;9.77;;;3.93;;
10904;SDS011;5505;51.450;9.254;2024-03-23T02:05:09;9.17;;;3.63;;
10904;SDS011;5505;51.450;9.254;2024-03-23T02:07:57;12.07;;;4.07;;
10904;SDS011;5505;51.450;9.254;2024-03-23T02:10:42;8.73;;;4.00;;
10904;SDS011;5505;51.450;9.254;2024-03-23T02:13:29;12.07;;;4.20;;
10904;SDS011;5505;51.450;9.254;2024-03-23T02:16:16;7.13;;;3.63;;
10904;SDS011;5505;51.450;9.254;2024-03-23T02:19:05;11.57;;;3.33;;
10904;SDS011;5505;51.450;9.254;2024-03-23T02:21:50;8.13;;;3.53;;
10904;SDS011;5505;51.450;9.254;2024-03-23T02:24:39;6.67;;;3.07;;
10904;SDS011;5505;51.450;9.254;2024-03-23T02:27:24;6.53;;;3.17;;
10904;SDS011;5505;51.450;9.254;2024-03-23T02:30:11;5.80;;;2.80;;
10904;SDS011;5505;51.450;9.254;2024-03-23T02:32:57;7.13;;;2.47;;
10904;SDS011;5505;51.450;9.254;2024-03-23T02:35:45;7.27;;;2.97;;
10904;SDS011;5505;51.450;9.254;2024-03-23T02:38:31;7.87;;;3.10;;
10904;SDS011;5505;51.450;9.254;2024-03-23T02:41:19;9.60;;;3.40;;
10904;SDS011;5505;51.450;9.254;2024-03-23T02:44:08;14.67;;;4.00;;
10904;SDS011;5505;51.450;9.254;2024-03-23T02:46:56;12.73;;;4.27;;
10904;SDS011;5505;51.450;9.254;2024-03-23T02:49:42;10.07;;;4.00;;
10904;SDS011;5505;51.450;9.254;2024-03-23T02:52:29;8.47;;;3.27;;
10904;SDS011;5505;51.450;9.254;2024-03-23T02:55:15;9.43;;;3.40;;
10904;SDS011;5505;51.450;9.254;2024-03-23T02:58:04;11.30;;;3.50;;
10904;SDS011;5505;51.450;9.254;2024-03-23T03:00:50;9.33;;;3.40;;
10904;SDS011;5505;51.450;9.254;2024-03-23T03:03:37;8.80;;;3.00;;
10904;SDS011;5505;51.450;9.254;2024-03-23T03:06:23;12.37;;;3.43;;
10904;SDS011;5505;51.450;9.254;2024-03-23T03:09:10;6.70;;;3.07;;
10904;SDS011;5505;51.450;9.254;2024-03-23T03:11:56;6.60;;;2.47;;
10904;SDS011;5505;51.450;9.254;2024-03-23T03:14:44;7.67;;;2.87;;
10904;SDS011;5505;51.450;9.254;2024-03-23T03:17:30;7.30;;;2.77;;
10904;SDS011;5505;51.450;9.254;2024-03-23T03:20:17;6.80;;;2.57;;
10904;SDS011;5505;51.450;9.254;2024-03-23T03:23:03;6.20;;;2.50;;
10904;SDS011;5505;51.450;9.254;2024-03-23T03:25:50;4.63;;;2.37;;
10904;SDS011;5505;51.450;9.254;2024-03-23T03:28:36;7.13;;;2.63;;
10904;SDS011;5505;51.450;9.254;2024-03-23T03:31:24;10.37;;;3.07;;
10904;SDS011;5505;51.450;9.254;2024-03-23T03:34:10;9.73;;;2.77;;
10904;SDS011;5505;51.450;9.254;2024-03-23T03:36:57;7.23;;;2.60;;
10904;SDS011;5505;51.450;9.254;2024-03-23T03:39:43;5.70;;;2.60;;
10904;SDS011;5505;51.450;9.254;2024-03-23T03:42:29;10.23;;;2.40;;
10904;SDS011;5505;51.450;9.254;2024-03-23T03:45:16;6.87;;;2.33;;
10904;SDS011;5505;51.450;9.254;2024-03-23T03:48:04;4.20;;;2.10;;
10904;SDS011;5505;51.450;9.254;2024-03-23T03:50:51;6.87;;;2.07;;
10904;SDS011;5505;51.450;9.254;2024-03-23T03:53:37;7.03;;;2.60;;
10904;SDS011;5505;51.450;9.254;2024-03-23T03:56:24;6.50;;;2.30;;
10904;SDS011;5505;51.450;9.254;2024-03-23T03:59:10;6.90;;;2.07;;
10904;SDS011;5505;51.450;9.254;2024-03-23T04:01:56;3.80;;;1.90;;
10904;SDS011;5505;51.450;9.254;2024-03-23T04:04:44;9.67;;;2.20;;
10904;SDS011;5505;51.450;9.254;2024-03-23T04:07:31;5.33;;;2.20;;
10904;SDS011;5505;51.450;9.254;2024-03-23T04:10:16;4.23;;;2.20;;
10904;SDS011;5505;51.450;9.254;2024-03-23T04:13:03;4.77;;;1.97;;
10904;SDS011;5505;51.450;9.254;2024-03-23T04:15:53;3.57;;;2.03;;
10904;SDS011;5505;51.450;9.254;2024-03-23T04:18:39;7.53;;;2.37;;
10904;SDS011;5505;51.450;9.254;2024-03-23T04:21:27;4.60;;;1.20;;
10904;SDS011;5505;51.450;9.254;2024-03-23T04:24:14;2.70;;;1.87;;
10904;SDS011;5505;51.450;9.254;2024-03-23T04:27:00;4.20;;;1.90;;
10904;SDS011;5505;51.450;9.254;2024-03-23T04:29:48;2.17;;;1.20;;
10904;SDS011;5505;51.450;9.254;2024-03-23T04:32:34;4.70;;;1.30;;
10904;SDS011;5505;51.450;9.254;2024-03-23T04:35:21;3.07;;;1.53;;
10904;SDS011;5505;51.450;9.254;2024-03-23T04:38:11;2.50;;;1.60;;
10904;SDS011;5505;51.450;9.254;2024-03-23T04:40:58;5.63;;;2.40;;
10904;SDS011;5505;51.450;9.254;2024-03-23T04:43:47;6.90;;;3.50;;
10904;SDS011;5505;51.450;9.254;2024-03-23T04:46:33;4.00;;;2.43;;
10904;SDS011;5505;51.450;9.254;2024-03-23T04:49:20;4.10;;;2.60;;
10904;SDS011;5505;51.450;9.254;2024-03-23T04:52:07;9.23;;;6.03;;
10904;SDS011;5505;51.450;9.254;2024-03-23T04:54:55;11.03;;;5.50;;
10904;SDS011;5505;51.450;9.254;2024-03-23T04:57:42;13.20;;;7.77;;
10904;SDS011;5505;51.450;9.254;2024-03-23T05:00:29;13.77;;;7.23;;
10904;SDS011;5505;51.450;9.254;2024-03-23T05:03:15;16.10;;;9.20;;
10904;SDS011;5505;51.450;9.254;2024-03-23T05:06:02;9.57;;;6.07;;
10904;SDS011;5505;51.450;9.254;2024-03-23T05:08:48;3.30;;;2.20;;
10904;SDS011;5505;51.450;9.254;2024-03-23T05:11:36;10.37;;;6.63;;
10904;SDS011;5505;51.450;9.254;2024-03-23T05:14:22;9.63;;;5.00;;
10904;SDS011;5505;51.450;9.254;2024-03-23T05:17:09;4.00;;;2.63;;
10904;SDS011;5505;51.450;9.254;2024-03-23T05:19:54;12.43;;;6.00;;
10904;SDS011;5505;51.450;9.254;2024-03-23T05:22:42;21.37;;;11.57;;
10904;SDS011;5505;51.450;9.254;2024-03-23T05:25:28;25.40;;;12.37;;
10904;SDS011;5505;51.450;9.254;2024-03-23T05:28:16;8.50;;;4.57;;
10904;SDS011;5505;51.450;9.254;2024-03-23T05:31:02;6.90;;;3.83;;
10904;SDS011;5505;51.450;9.254;2024-03-23T05:33:49;9.17;;;6.43;;
10904;SDS011;5505;51.450;9.254;2024-03-23T05:36:35;9.57;;;6.00;;
10904;SDS011;5505;51.450;9.254;2024-03-23T05:39:22;3.53;;;1.47;;
10904;SDS011;5505;51.450;9.254;2024-03-23T05:42:08;6.80;;;3.90;;
10904;SDS011;5505;51.450;9.254;2024-03-23T05:44:57;8.10;;;4.73;;
10904;SDS011;5505;51.450;9.254;2024-03-23T05:47:42;3.00;;;2.37;;
10904;SDS011;5505;51.450;9.254;2024-03-23T05:50:29;2.87;;;1.70;;
10904;SDS011;5505;51.450;9.254;2024-03-23T05:53:15;3.80;;;1.20;;
10904;SDS011;5505;51.450;9.254;2024-03-23T05:56:03;2.73;;;1.73;;
10904;SDS011;5505;51.450;9.254;2024-03-23T05:58:49;1.80;;;1.27;;
10904;SDS011;5505;51.450;9.254;2024-03-23T06:01:37;2.53;;;1.23;;
10904;SDS011;5505;51.450;9.254;2024-03-23T06:04:24;3.83;;;1.43;;
10904;SDS011;5505;51.450;9.254;2024-03-23T06:07:11;2.33;;;1.10;;
10904;SDS011;5505;51.450;9.254;2024-03-23T06:09:59;3.93;;;2.80;;
10904;SDS011;5505;51.450;9.254;2024-03-23T06:12:45;1.60;;;0.73;;
10904;SDS011;5505;51.450;9.254;2024-03-23T06:15:34;1.37;;;1.00;;
10904;SDS011;5505;51.450;9.254;2024-03-23T06:18:24;1.73;;;0.80;;
10904;SDS011;5505;51.450;9.254;2024-03-23T06:21:13;1.40;;;1.07;;
10904;SDS011;5505;51.450;9.254;2024-03-23T06:23:59;4.03;;;1.10;;
10904;SDS011;5505;51.450;9.254;2024-03-23T06:26:46;1.97;;;1.47;;
10904;SDS011;5505;51.450;9.254;2024-03-23T06:29:32;3.17;;;1.20;;
10904;SDS011;5505;51.450;9.254;2024-03-23T06:32:18;2.50;;;1.10;;
10904;SDS011;5505;51.450;9.254;2024-03-23T06:35:07;4.77;;;1.20;;
10904;SDS011;5505;51.450;9.254;2024-03-23T06:37:54;3.83;;;1.50;;
10904;SDS011;5505;51.450;9.254;2024-03-23T06:40:40;17.50;;;9.83;;
10904;SDS011;5505;51.450;9.254;2024-03-23T06:43:27;7.93;;;1.90;;
10904;SDS011;5505;51.450;9.254;2024-03-23T06:46:13;11.83;;;6.07;;
10904;SDS011;5505;51.450;9.254;2024-03-23T06:48:59;6.30;;;2.07;;
10904;SDS011;5505;51.450;9.254;2024-03-23T06:51:47;6.80;;;1.80;;
10904;SDS011;5505;51.450;9.254;2024-03-23T06:54:33;8.53;;;1.70;;
10904;SDS011;5505;51.450;9.254;2024-03-23T06:57:20;4.40;;;1.40;;
10904;SDS011;5505;51.450;9.254;2024-03-23T07:00:06;4.90;;;1.70;;
10904;SDS011;5505;51.450;9.254;2024-03-23T07:02:55;3.97;;;1.53;;
10904;SDS011;5505;51.450;9.254;2024-03-23T07:05:41;7.97;;;2.00;;
10904;SDS011;5505;51.450;9.254;2024-03-23T07:08:29;6.67;;;2.30;;
10904;SDS011;5505;51.450;9.254;2024-03-23T07:11:18;6.27;;;2.37;;
10904;SDS011;5505;51.450;9.254;2024-03-23T07:14:05;10.13;;;4.07;;
10904;SDS011;5505;51.450;9.254;2024-03-23T07:16:51;6.67;;;1.87;;
10904;SDS011;5505;51.450;9.254;2024-03-23T07:19:38;16.13;;;5.47;;
10904;SDS011;5505;51.450;9.254;2024-03-23T07:22:23;10.00;;;4.33;;
10904;SDS011;5505;51.450;9.254;2024-03-23T07:25:12;9.87;;;3.50;;
10904;SDS011;5505;51.450;9.254;2024-03-23T07:27:58;10.87;;;4.03;;
10904;SDS011;5505;51.450;9.254;2024-03-23T07:30:44;13.13;;;5.97;;
10904;SDS011;5505;51.450;9.254;2024-03-23T07:33:30;5.13;;;2.60;;
10904;SDS011;5505;51.450;9.254;2024-03-23T07:36:17;6.77;;;2.40;;
10904;SDS011;5505;51.450;9.254;2024-03-23T07:39:03;5.73;;;1.87;;
10904;SDS011;5505;51.450;9.254;2024-03-23T07:41:51;7.40;;;2.83;;
10904;SDS011;5505;51.450;9.254;2024-03-23T07:44:37;3.40;;;2.20;;
10904;SDS011;5505;51.450;9.254;2024-03-23T07:47:24;6.10;;;2.10;;
10904;SDS011;5505;51.450;9.254;2024-03-23T07:50:10;5.37;;;2.13;;
10904;SDS011;5505;51.450;9.254;2024-03-23T07:52:57;5.00;;;1.80;;
10904;SDS011;5505;51.450;9.254;2024-03-23T07:55:43;5.07;;;2.20;;
10904;SDS011;5505;51.450;9.254;2024-03-23T07:58:41;7.70;;;2.27;;
10904;SDS011;5505;51.450;9.254;2024-03-23T08:01:27;4.30;;;1.73;;
10904;SDS011;5505;51.450;9.254;2024-03-23T08:04:14;6.67;;;2.10;;
10904;SDS011;5505;51.450;9.254;2024-03-23T08:07:00;5.00;;;2.60;;
10904;SDS011;5505;51.450;9.254;2024-03-23T08:09:47;8.77;;;2.60;;
10904;SDS011;5505;51.450;9.254;2024-03-23T08:12:33;8.33;;;3.30;;
10904;SDS011;5505;51.450;9.254;2024-03-23T08:15:21;7.77;;;2.93;;
10904;SDS011;5505;51.450;9.254;2024-03-23T08:18:07;14.37;;;4.77;;
10904;SDS011;5505;51.450;9.254;2024-03-23T08:20:55;8.53;;;3.53;;
10904;SDS011;5505;51.450;9.254;2024-03-23T08:23:42;10.37;;;4.00;;
10904;SDS011;5505;51.450;9.254;2024-03-23T08:26:29;9.03;;;3.60;;
10904;SDS011;5505;51.450;9.254;2024-03-23T08:29:14;10.83;;;4.23;;
10904;SDS011;5505;51.450;9.254;2024-03-23T08:32:03;7.47;;;3.53;;
10904;SDS011;5505;51.450;9.254;2024-03-23T08:34:49;9.93;;;4.30;;
10904;SDS011;5505;51.450;9.254;2024-03-23T08:37:36;10.07;;;4.93;;
10904;SDS011;5505;51.450;9.254;2024-03-23T08:40:21;10.50;;;4.83;;
10904;SDS011;5505;51.450;9.254;2024-03-23T08:43:08;12.80;;;6.63;;
10904;SDS011;5505;51.450;9.254;2024-03-23T08:45:54;13.03;;;7.00;;
10904;SDS011;5505;51.450;9.254;2024-03-23T08:48:50;13.17;;;7.20;;
10904;SDS011;5505;51.450;9.254;2024-03-23T08:51:37;13.60;;;7.70;;
10904;SDS011;5505;51.450;9.254;2024-03-23T08:54:24;14.43;;;7.93;;
10904;SDS011;5505;51.450;9.254;2024-03-23T08:57:12;19.70;;;9.07;;
10904;SDS011;5505;51.450;9.254;2024-03-23T08:59:59;16.53;;;9.00;;
10904;SDS011;5505;51.450;9.254;2024-03-23T09:02:47;12.13;;;7.93;;
10904;SDS011;5505;51.450;9.254;2024-03-23T09:05:39;15.33;;;7.93;;
10904;SDS011;5505;51.450;9.254;2024-03-23T09:08:26;12.67;;;8.30;;
10904;SDS011;5505;51.450;9.254;2024-03-23T09:11:12;15.10;;;8.10;;
10904;SDS011;5505;51.450;9.254;2024-03-23T09:13:59;13.80;;;8.20;;
10904;SDS011;5505;51.450;9.254;2024-03-23T09:16:45;12.80;;;7.53;;
10904;SDS011;5505;51.450;9.254;2024-03-23T09:19:32;15.13;;;7.93;;
10904;SDS011;5505;51.450;9.254;2024-03-23T09:22:19;15.77;;;8.97;;
10904;SDS011;5505;51.450;9.254;2024-03-23T09:25:06;19.27;;;9.10;;
10904;SDS011;5505;51.450;9.254;2024-03-23T09:27:53;12.73;;;7.93;;
10904;SDS011;5505;51.450;9.254;2024-03-23T09:30:40;12.60;;;7.60;;
10904;SDS011;5505;51.450;9.254;2024-03-23T09:33:27;14.17;;;7.47;;
10904;SDS011;5505;51.450;9.254;2024-03-23T09:36:15;11.70;;;7.67;;
10904;SDS011;5505;51.450;9.254;2024-03-23T09:39:02;18.90;;;8.73;;
10904;SDS011;5505;51.450;9.254;2024-03-23T09:41:50;16.63;;;10.43;;
10904;SDS011;5505;51.450;9.254;2024-03-23T09:44:41;15.93;;;9.80;;
10904;SDS011;5505;51.450;9.254;2024-03-23T09:47:28;18.43;;;9.67;;
10904;SDS011;5505;51.450;9.254;2024-03-23T09:50:15;14.27;;;8.17;;
10904;SDS011;5505;51.450;9.254;2024-03-23T09:53:01;11.47;;;8.10;;
10904;SDS011;5505;51.450;9.254;2024-03-23T09:55:49;17.17;;;8.23;;
10904;SDS011;5505;51.450;9.254;2024-03-23T09:58:35;16.30;;;7.63;;
10904;SDS011;5505;51.450;9.254;2024-03-23T10:01:22;13.60;;;7.63;;
10904;SDS011;5505;51.450;9.254;2024-03-23T10:04:08;12.30;;;7.07;;
10904;SDS011;5505;51.450;9.254;2024-03-23T10:06:54;12.40;;;6.53;;
10904;SDS011;5505;51.450;9.254;2024-03-23T10:09:49;12.90;;;6.63;;
10904;SDS011;5505;51.450;9.254;2024-03-23T10:12:40;12.10;;;6.20;;
10904;SDS011;5505;51.450;9.254;2024-03-23T10:15:30;12.20;;;5.70;;
10904;SDS011;5505;51.450;9.254;2024-03-23T10:18:21;14.57;;;6.20;;
10904;SDS011;5505;51.450;9.254;2024-03-23T10:21:08;8.80;;;5.47;;
10904;SDS011;5505;51.450;9.254;2024-03-23T10:23:56;12.03;;;6.10;;
10904;SDS011;5505;51.450;9.254;2024-03-23T10:26:55;8.77;;;4.80;;
10904;SDS011;5505;51.450;9.254;2024-03-23T10:29:44;8.77;;;4.33;;
10904;SDS011;5505;51.450;9.254;2024-03-23T10:32:30;9.57;;;4.30;;
10904;SDS011;5505;51.450;9.254;2024-03-23T10:35:17;10.27;;;4.67;;
10904;SDS011;5505;51.450;9.254;2024-03-23T10:38:05;7.93;;;3.90;;
10904;SDS011;5505;51.450;9.254;2024-03-23T10:40:53;12.77;;;4.23;;
10904;SDS011;5505;51.450;9.254;2024-03-23T10:43:39;5.57;;;3.80;;
10904;SDS011;5505;51.450;9.254;2024-03-23T10:46:27;4.37;;;2.93;;
10904;SDS011;5505;51.450;9.254;2024-03-23T10:49:13;3.30;;;2.70;;
10904;SDS011;5505;51.450;9.254;2024-03-23T10:52:01;4.13;;;2.70;;
10904;SDS011;5505;51.450;9.254;2024-03-23T10:54:48;6.37;;;3.53;;
10904;SDS011;5505;51.450;9.254;2024-03-23T10:57:39;6.10;;;4.00;;
10904;SDS011;5505;51.450;9.254;2024-03-23T11:00:27;5.97;;;4.20;;
10904;SDS011;5505;51.450;9.254;2024-03-23T11:03:32;4.87;;;4.13;;
10904;SDS011;5505;51.450;9.254;2024-03-23T11:06:33;8.67;;;5.50;;
10904;SDS011;5505;51.450;9.254;2024-03-23T11:12:28;5.37;;;3.10;;
10904;SDS011;5505;51.450;9.254;2024-03-23T11:15:19;5.53;;;3.00;;
10904;SDS011;5505;51.450;9.254;2024-03-23T11:18:05;3.97;;;3.00;;
10904;SDS011;5505;51.450;9.254;2024-03-23T11:20:55;2.40;;;2.20;;
10904;SDS011;5505;51.450;9.254;2024-03-23T11:23:41;5.07;;;2.80;;
10904;SDS011;5505;51.450;9.254;2024-03-23T11:26:28;4.83;;;3.20;;
10904;SDS011;5505;51.450;9.254;2024-03-23T11:29:14;5.70;;;3.37;;
10904;SDS011;5505;51.450;9.254;2024-03-23T11:32:02;5.20;;;3.17;;
10904;SDS011;5505;51.450;9.254;2024-03-23T11:34:49;6.10;;;3.33;;
10904;SDS011;5505;51.450;9.254;2024-03-23T11:37:38;5.00;;;3.57;;
10904;SDS011;5505;51.450;9.254;2024-03-23T11:40:24;4.20;;;3.20;;
10904;SDS011;5505;51.450;9.254;2024-03-23T11:43:12;7.17;;;3.40;;
10904;SDS011;5505;51.450;9.254;2024-03-23T11:46:00;4.43;;;2.17;;
10904;SDS011;5505;51.450;9.254;2024-03-23T11:48:49;4.87;;;1.77;;
10904;SDS011;5505;51.450;9.254;2024-03-23T11:51:36;5.00;;;1.50;;
10904;SDS011;5505;51.450;9.254;2024-03-23T11:54:24;2.67;;;1.50;;
10904;SDS011;5505;51.450;9.254;2024-03-23T11:57:11;4.33;;;1.80;;
10904;SDS011;5505;51.450;9.254;2024-03-23T11:59:57;4.63;;;1.83;;
10904;SDS011;5505;51.450;9.254;2024-03-23T12:02:43;4.17;;;1.70;;
10904;SDS011;5505;51.450;9.254;2024-03-23T12:05:30;3.90;;;2.47;;
10904;SDS011;5505;51.450;9.254;2024-03-23T12:08:20;2.13;;;1.60;;
10904;SDS011;5505;51.450;9.254;2024-03-23T12:11:10;1.63;;;1.10;;
10904;SDS011;5505;51.450;9.254;2024-03-23T12:13:59;2.60;;;1.30;;
10904;SDS011;5505;51.450;9.254;2024-03-23T12:16:46;2.33;;;1.10;;
10904;SDS011;5505;51.450;9.254;2024-03-23T12:19:32;3.77;;;1.60;;
10904;SDS011;5505;51.450;9.254;2024-03-23T12:22:20;2.20;;;1.30;;
10904;SDS011;5505;51.450;9.254;2024-03-23T12:25:07;11.47;;;1.70;;
10904;SDS011;5505;51.450;9.254;2024-03-23T12:27:54;3.13;;;1.40;;
10904;SDS011;5505;51.450;9.254;2024-03-23T12:30:45;3.03;;;1.60;;
10904;SDS011;5505;51.450;9.254;2024-03-23T12:33:30;4.13;;;1.70;;
10904;SDS011;5505;51.450;9.254;2024-03-23T12:36:17;6.20;;;1.77;;
10904;SDS011;5505;51.450;9.254;2024-03-23T12:39:03;2.90;;;1.70;;
10904;SDS011;5505;51.450;9.254;2024-03-23T12:41:50;3.70;;;1.70;;
10904;SDS011;5505;51.450;9.254;2024-03-23T12:44:39;3.77;;;2.00;;
10904;SDS011;5505;51.450;9.254;2024-03-23T12:47:26;2.60;;;1.63;;
10904;SDS011;5505;51.450;9.254;2024-03-23T12:50:12;5.03;;;2.40;;
10904;SDS011;5505;51.450;9.254;2024-03-23T12:52:59;3.13;;;2.17;;
10904;SDS011;5505;51.450;9.254;2024-03-23T12:55:44;4.07;;;2.30;;
10904;SDS011;5505;51.450;9.254;2024-03-23T12:58:31;3.87;;;2.90;;
10904;SDS011;5505;51.450;9.254;2024-03-23T13:01:18;6.23;;;2.80;;
10904;SDS011;5505;51.450;9.254;2024-03-23T13:04:05;4.37;;;3.20;;
10904;SDS011;5505;51.450;9.254;2024-03-23T13:06:51;11.90;;;6.47;;
10904;SDS011;5505;51.450;9.254;2024-03-23T13:09:38;3.37;;;2.17;;
10904;SDS011;5505;51.450;9.254;2024-03-23T13:12:23;6.07;;;2.33;;
10904;SDS011;5505;51.450;9.254;2024-03-23T13:15:10;1.97;;;1.27;;
10904;SDS011;5505;51.450;9.254;2024-03-23T13:17:58;1.97;;;1.03;;
10904;SDS011;5505;51.450;9.254;2024-03-23T13:20:44;2.97;;;0.80;;
10904;SDS011;5505;51.450;9.254;2024-03-23T13:23:32;0.80;;;0.50;;
10904;SDS011;5505;51.450;9.254;2024-03-23T13:26:20;1.50;;;0.70;;
10904;SDS011;5505;51.450;9.254;2024-03-23T13:29:07;3.17;;;0.90;;
10904;SDS011;5505;51.450;9.254;2024-03-23T13:31:53;1.77;;;0.70;;
10904;SDS011;5505;51.450;9.254;2024-03-23T13:34:41;1.57;;;0.90;;
10904;SDS011;5505;51.450;9.254;2024-03-23T13:37:27;2.70;;;1.23;;
10904;SDS011;5505;51.450;9.254;2024-03-23T13:40:14;2.67;;;1.57;;
10904;SDS011;5505;51.450;9.254;2024-03-23T13:43:00;2.40;;;1.70;;
10904;SDS011;5505;51.450;9.254;2024-03-23T13:45:47;2.57;;;1.97;;
10904;SDS011;5505;51.450;9.254;2024-03-23T13:48:33;2.27;;;1.23;;
10904;SDS011;5505;51.450;9.254;2024-03-23T13:51:24;3.93;;;1.67;;
10904;SDS011;5505;51.450;9.254;2024-03-23T13:54:12;2.93;;;1.40;;
10904;SDS011;5505;51.450;9.254;2024-03-23T13:56:59;1.73;;;1.07;;
10904;SDS011;5505;51.450;9.254;2024-03-23T13:59:45;2.00;;;1.53;;
10904;SDS011;5505;51.450;9.254;2024-03-23T14:02:32;3.80;;;1.53;;
10904;SDS011;5505;51.450;9.254;2024-03-23T14:05:18;2.87;;;1.47;;
10904;SDS011;5505;51.450;9.254;2024-03-23T14:08:06;3.17;;;1.83;;
10904;SDS011;5505;51.450;9.254;2024-03-23T14:10:53;4.90;;;2.07;;
10904;SDS011;5505;51.450;9.254;2024-03-23T14:13:40;2.83;;;1.57;;
10904;SDS011;5505;51.450;9.254;2024-03-23T14:16:25;2.77;;;1.70;;
10904;SDS011;5505;51.450;9.254;2024-03-23T14:19:12;2.17;;;1.57;;
10904;SDS011;5505;51.450;9.254;2024-03-23T14:21:58;4.50;;;2.17;;
10904;SDS011;5505;51.450;9.254;2024-03-23T14:24:47;5.20;;;2.20;;
10904;SDS011;5505;51.450;9.254;2024-03-23T14:27:33;3.53;;;1.60;;
10904;SDS011;5505;51.450;9.254;2024-03-23T14:30:22;3.77;;;1.73;;
10904;SDS011;5505;51.450;9.254;2024-03-23T14:33:08;2.07;;;1.80;;
10904;SDS011;5505;51.450;9.254;2024-03-23T14:35:55;2.87;;;1.50;;
10904;SDS011;5505;51.450;9.254;2024-03-23T14:38:42;3.57;;;1.90;;
10904;SDS011;5505;51.450;9.254;2024-03-23T14:41:30;3.23;;;1.30;;
10904;SDS011;5505;51.450;9.254;2024-03-23T14:44:16;3.50;;;1.53;;
10904;SDS011;5505;51.450;9.254;2024-03-23T14:47:03;2.70;;;0.90;;
10904;SDS011;5505;51.450;9.254;2024-03-23T14:49:49;2.97;;;1.50;;
10904;SDS011;5505;51.450;9.254;2024-03-23T14:52:36;3.37;;;1.30;;
10904;SDS011;5505;51.450;9.254;2024-03-23T14:55:22;2.97;;;1.40;;
10904;SDS011;5505;51.450;9.254;2024-03-23T14:58:10;2.17;;;1.60;;
10904;SDS011;5505;51.450;9.254;2024-03-23T15:00:59;2.63;;;1.33;;
10904;SDS011;5505;51.450;9.254;2024-03-23T15:03:47;2.07;;;1.00;;
10904;SDS011;5505;51.450;9.254;2024-03-23T15:06:32;3.00;;;0.90;;
10904;SDS011;5505;51.450;9.254;2024-03-23T15:09:19;2.67;;;1.13;;
10904;SDS011;5505;51.450;9.254;2024-03-23T15:12:05;2.07;;;0.87;;
10904;SDS011;5505;51.450;9.254;2024-03-23T15:14:54;2.70;;;0.90;;
10904;SDS011;5505;51.450;9.254;2024-03-23T15:17:41;2.60;;;1.00;;
10904;SDS011;5505;51.450;9.254;2024-03-23T15:20:29;1.90;;;0.73;;
10904;SDS011;5505;51.450;9.254;2024-03-23T15:23:16;1.60;;;0.80;;
10904;SDS011;5505;51.450;9.254;2024-03-23T15:26:03;1.87;;;1.07;;
10904;SDS011;5505;51.450;9.254;2024-03-23T15:28:51;1.50;;;1.17;;
10904;SDS011;5505;51.450;9.254;2024-03-23T15:31:57;2.23;;;1.00;;
10904;SDS011;5505;51.450;9.254;2024-03-23T15:34:44;5.27;;;1.30;;
10904;SDS011;5505;51.450;9.254;2024-03-23T15:37:31;3.17;;;1.10;;
10904;SDS011;5505;51.450;9.254;2024-03-23T15:40:19;2.13;;;1.37;;
10904;SDS011;5505;51.450;9.254;2024-03-23T15:43:06;4.80;;;1.60;;
10904;SDS011;5505;51.450;9.254;2024-03-23T15:45:54;2.90;;;1.40;;
10904;SDS011;5505;51.450;9.254;2024-03-23T15:48:43;6.30;;;1.40;;
10904;SDS011;5505;51.450;9.254;2024-03-23T15:51:31;3.37;;;1.50;;
10904;SDS011;5505;51.450;9.254;2024-03-23T15:54:22;3.87;;;1.67;;
10904;SDS011;5505;51.450;9.254;2024-03-23T15:57:07;5.53;;;1.47;;
10904;SDS011;5505;51.450;9.254;2024-03-23T15:59:54;3.73;;;1.73;;
10904;SDS011;5505;51.450;9.254;2024-03-23T16:02:40;4.67;;;1.80;;
10904;SDS011;5505;51.450;9.254;2024-03-23T16:05:29;2.97;;;1.80;;
10904;SDS011;5505;51.450;9.254;2024-03-23T16:08:15;5.33;;;2.20;;
10904;SDS011;5505;51.450;9.254;2024-03-23T16:11:02;3.17;;;1.90;;
10904;SDS011;5505;51.450;9.254;2024-03-23T16:13:48;3.13;;;1.63;;
10904;SDS011;5505;51.450;9.254;2024-03-23T16:16:35;1.40;;;0.90;;
10904;SDS011;5505;51.450;9.254;2024-03-23T16:19:21;3.20;;;1.03;;
10904;SDS011;5505;51.450;9.254;2024-03-23T16:22:09;1.70;;;0.60;;
10904;SDS011;5505;51.450;9.254;2024-03-23T16:24:55;4.43;;;1.10;;
10904;SDS011;5505;51.450;9.254;2024-03-23T16:27:42;1.80;;;0.90;;
10904;SDS011;5505;51.450;9.254;2024-03-23T16:30:28;2.43;;;1.30;;
10904;SDS011;5505;51.450;9.254;2024-03-23T16:33:14;3.83;;;1.57;;
10904;SDS011;5505;51.450;9.254;2024-03-23T16:36:01;3.53;;;1.40;;
10904;SDS011;5505;51.450;9.254;2024-03-23T16:38:51;3.53;;;1.50;;
10904;SDS011;5505;51.450;9.254;2024-03-23T16:41:37;2.90;;;1.10;;
10904;SDS011;5505;51.450;9.254;2024-03-23T16:44:23;3.33;;;2.00;;
10904;SDS011;5505;51.450;9.254;2024-03-23T16:47:10;4.37;;;3.10;;
10904;SDS011;5505;51.450;9.254;2024-03-23T16:49:56;1.57;;;1.27;;
10904;SDS011;5505;51.450;9.254;2024-03-23T16:52:44;2.70;;;1.10;;
10904;SDS011;5505;51.450;9.254;2024-03-23T16:55:31;2.20;;;1.80;;
10904;SDS011;5505;51.450;9.254;2024-03-23T16:58:18;3.53;;;1.77;;
10904;SDS011;5505;51.450;9.254;2024-03-23T17:01:04;2.60;;;1.63;;
10904;SDS011;5505;51.450;9.254;2024-03-23T17:03:53;4.63;;;2.60;;
10904;SDS011;5505;51.450;9.254;2024-03-23T17:06:39;2.57;;;1.67;;
10904;SDS011;5505;51.450;9.254;2024-03-23T17:09:26;2.70;;;1.80;;
10904;SDS011;5505;51.450;9.254;2024-03-23T17:12:14;3.83;;;1.50;;
10904;SDS011;5505;51.450;9.254;2024-03-23T17:15:03;2.77;;;1.40;;
10904;SDS011;5505;51.450;9.254;2024-03-23T17:17:51;2.57;;;1.13;;
10904;SDS011;5505;51.450;9.254;2024-03-23T17:20:38;2.90;;;1.60;;
10904;SDS011;5505;51.450;9.254;2024-03-23T17:23:26;2.83;;;1.53;;
10904;SDS011;5505;51.450;9.254;2024-03-23T17:26:12;2.77;;;1.40;;
10904;SDS011;5505;51.450;9.254;2024-03-23T17:29:01;2.23;;;1.90;;
10904;SDS011;5505;51.450;9.254;2024-03-23T17:31:47;2.03;;;1.80;;
10904;SDS011;5505;51.450;9.254;2024-03-23T17:34:34;3.57;;;2.13;;
10904;SDS011;5505;51.450;9.254;2024-03-23T17:37:20;3.63;;;2.10;;
10904;SDS011;5505;51.450;9.254;2024-03-23T17:40:07;2.30;;;1.50;;
10904;SDS011;5505;51.450;9.254;2024-03-23T17:42:54;1.23;;;1.07;;
10904;SDS011;5505;51.450;9.254;2024-03-23T17:45:44;4.07;;;1.33;;
10904;SDS011;5505;51.450;9.254;2024-03-23T17:48:29;2.57;;;1.10;;
10904;SDS011;5505;51.450;9.254;2024-03-23T17:51:16;2.37;;;1.10;;
10904;SDS011;5505;51.450;9.254;2024-03-23T17:54:03;4.40;;;1.30;;
10904;SDS011;5505;51.450;9.254;2024-03-23T17:56:50;3.57;;;1.30;;